sensor_id;sensor_type;location;lat;lon;timestamp;P1;durP1;ratioP1;P2;durP2;ratioP2
8151;SDS011;4117;53.622;9.958;2022-09-13T00:00:30;0.60;;;0.60;;
8151;SDS011;4117;53.622;9.958;2022-09-13T00:02:58;0.50;;;0.40;;
8151;SDS011;4117;53.622;9.958;2022-09-13T00:05:25;0.43;;;0.43;;
8151;SDS011;4117;53.622;9.958;2022-09-13T00:07:52;1.10;;;0.77;;
8151;SDS011;4117;53.622;9.958;2022-09-13T00:10:19;0.93;;;0.70;;
8151;SDS011;4117;53.622;9.958;2022-09-13T00:12:46;0.70;;;0.50;;
8151;SDS011;4117;53.622;9.958;2022-09-13T00:15:13;0.30;;;0.30;;
8151;SDS011;4117;53.622;9.958;2022-09-13T00:17:40;0.50;;;0.50;;
8151;SDS011;4117;53.622;9.958;2022-09-13T00:20:09;0.60;;;0.60;;
8151;SDS011;4117;53.622;9.958;2022-09-13T00:22:36;0.60;;;0.60;;
8151;SDS011;4117;53.622;9.958;2022-09-13T00:25:04;0.60;;;0.50;;
8151;SDS011;4117;53.622;9.958;2022-09-13T00:27:32;0.60;;;0.60;;
8151;SDS011;4117;53.622;9.958;2022-09-13T00:29:59;0.57;;;0.57;;
8151;SDS011;4117;53.622;9.958;2022-09-13T00:32:26;0.60;;;0.60;;
8151;SDS011;4117;53.622;9.958;2022-09-13T00:34:53;0.50;;;0.50;;
8151;SDS011;4117;53.622;9.958;2022-09-13T00:37:22;0.37;;;0.30;;
8151;SDS011;4117;53.622;9.958;2022-09-13T00:39:48;0.37;;;0.37;;
8151;SDS011;4117;53.622;9.958;2022-09-13T00:42:15;0.90;;;0.60;;
8151;SDS011;4117;53.622;9.958;2022-09-13T00:44:55;0.77;;;0.57;;
8151;SDS011;4117;53.622;9.958;2022-09-13T00:47:25;0.60;;;0.50;;
8151;SDS011;4117;53.622;9.958;2022-09-13T00:50:00;0.43;;;0.40;;
8151;SDS011;4117;53.622;9.958;2022-09-13T00:52:32;0.40;;;0.40;;
8151;SDS011;4117;53.622;9.958;2022-09-13T00:55:03;0.50;;;0.50;;
8151;SDS011;4117;53.622;9.958;2022-09-13T00:57:33;0.27;;;0.27;;
8151;SDS011;4117;53.622;9.958;2022-09-13T01:00:03;0.43;;;0.43;;
8151;SDS011;4117;53.622;9.958;2022-09-13T01:02:35;0.60;;;0.60;;
8151;SDS011;4117;53.622;9.958;2022-09-13T01:05:03;0.40;;;0.30;;
8151;SDS011;4117;53.622;9.958;2022-09-13T01:07:31;0.63;;;0.60;;
8151;SDS011;4117;53.622;9.958;2022-09-13T01:10:01;0.57;;;0.57;;
8151;SDS011;4117;53.622;9.958;2022-09-13T01:12:33;0.67;;;0.50;;
8151;SDS011;4117;53.622;9.958;2022-09-13T01:15:05;0.50;;;0.50;;
8151;SDS011;4117;53.622;9.958;2022-09-13T01:17:32;0.50;;;0.33;;
8151;SDS011;4117;53.622;9.958;2022-09-13T01:20:00;1.43;;;1.00;;
8151;SDS011;4117;53.622;9.958;2022-09-13T01:22:38;0.57;;;0.57;;
8151;SDS011;4117;53.622;9.958;2022-09-13T01:31:26;0.40;;;0.40;;
8151;SDS011;4117;53.622;9.958;2022-09-13T01:34:01;0.47;;;0.40;;
8151;SDS011;4117;53.622;9.958;2022-09-13T01:36:52;0.73;;;0.57;;
8151;SDS011;4117;53.622;9.958;2022-09-13T01:39:30;0.20;;;0.20;;
8151;SDS011;4117;53.622;9.958;2022-09-13T01:42:12;0.77;;;0.60;;
8151;SDS011;4117;53.622;9.958;2022-09-13T01:44:52;0.40;;;0.37;;
8151;SDS011;4117;53.622;9.958;2022-09-13T01:47:30;0.43;;;0.40;;
8151;SDS011;4117;53.622;9.958;2022-09-13T01:50:06;0.63;;;0.53;;
8151;SDS011;4117;53.622;9.958;2022-09-13T01:52:41;0.37;;;0.37;;
8151;SDS011;4117;53.622;9.958;2022-09-13T01:55:18;0.40;;;0.40;;
8151;SDS011;4117;53.622;9.958;2022-09-13T01:57:52;0.40;;;0.40;;
8151;SDS011;4117;53.622;9.958;2022-09-13T02:00:22;0.30;;;0.30;;
8151;SDS011;4117;53.622;9.958;2022-09-13T02:02:51;0.33;;;0.27;;
8151;SDS011;4117;53.622;9.958;2022-09-13T02:05:25;0.20;;;0.20;;
8151;SDS011;4117;53.622;9.958;2022-09-13T02:07:58;0.30;;;0.30;;
8151;SDS011;4117;53.622;9.958;2022-09-13T02:10:30;0.27;;;0.27;;
8151;SDS011;4117;53.622;9.958;2022-09-13T02:13:00;0.33;;;0.30;;
8151;SDS011;4117;53.622;9.958;2022-09-13T02:15:33;0.30;;;0.30;;
8151;SDS011;4117;53.622;9.958;2022-09-13T02:18:06;0.77;;;0.50;;
8151;SDS011;4117;53.622;9.958;2022-09-13T02:20:35;0.30;;;0.27;;
8151;SDS011;4117;53.622;9.958;2022-09-13T02:23:07;1.53;;;0.40;;
8151;SDS011;4117;53.622;9.958;2022-09-13T02:25:38;0.33;;;0.33;;
8151;SDS011;4117;53.622;9.958;2022-09-13T02:28:08;0.20;;;0.17;;
8151;SDS011;4117;53.622;9.958;2022-09-13T02:30:38;0.77;;;0.47;;
8151;SDS011;4117;53.622;9.958;2022-09-13T02:33:12;1.40;;;0.50;;
8151;SDS011;4117;53.622;9.958;2022-09-13T02:35:44;0.50;;;0.50;;
8151;SDS011;4117;53.622;9.958;2022-09-13T02:38:17;0.53;;;0.50;;
8151;SDS011;4117;53.622;9.958;2022-09-13T02:40:50;1.03;;;0.70;;
8151;SDS011;4117;53.622;9.958;2022-09-13T02:43:24;0.30;;;0.30;;
8151;SDS011;4117;53.622;9.958;2022-09-13T02:45:57;0.50;;;0.37;;
8151;SDS011;4117;53.622;9.958;2022-09-13T02:48:35;0.50;;;0.50;;
8151;SDS011;4117;53.622;9.958;2022-09-13T02:51:14;0.33;;;0.33;;
8151;SDS011;4117;53.622;9.958;2022-09-13T02:53:49;0.60;;;0.60;;
8151;SDS011;4117;53.622;9.958;2022-09-13T02:56:26;0.33;;;0.33;;
8151;SDS011;4117;53.622;9.958;2022-09-13T02:59:01;1.27;;;0.60;;
8151;SDS011;4117;53.622;9.958;2022-09-13T03:01:35;0.83;;;0.50;;
8151;SDS011;4117;53.622;9.958;2022-09-13T03:04:04;0.30;;;0.30;;
8151;SDS011;4117;53.622;9.958;2022-09-13T03:06:31;0.50;;;0.50;;
8151;SDS011;4117;53.622;9.958;2022-09-13T03:08:59;0.30;;;0.30;;
8151;SDS011;4117;53.622;9.958;2022-09-13T03:11:32;1.67;;;0.67;;
8151;SDS011;4117;53.622;9.958;2022-09-13T03:14:14;0.67;;;0.47;;
8151;SDS011;4117;53.622;9.958;2022-09-13T03:16:51;2.00;;;0.73;;
8151;SDS011;4117;53.622;9.958;2022-09-13T03:19:38;0.80;;;0.60;;
8151;SDS011;4117;53.622;9.958;2022-09-13T03:22:25;0.40;;;0.40;;
8151;SDS011;4117;53.622;9.958;2022-09-13T03:25:05;0.80;;;0.50;;
8151;SDS011;4117;53.622;9.958;2022-09-13T03:27:37;0.60;;;0.60;;
8151;SDS011;4117;53.622;9.958;2022-09-13T03:30:13;0.30;;;0.30;;
8151;SDS011;4117;53.622;9.958;2022-09-13T03:32:43;0.80;;;0.50;;
8151;SDS011;4117;53.622;9.958;2022-09-13T03:35:24;1.20;;;0.70;;
8151;SDS011;4117;53.622;9.958;2022-09-13T03:37:56;0.90;;;0.53;;
8151;SDS011;4117;53.622;9.958;2022-09-13T03:40:33;1.43;;;0.57;;
8151;SDS011;4117;53.622;9.958;2022-09-13T03:43:06;0.30;;;0.30;;
8151;SDS011;4117;53.622;9.958;2022-09-13T03:45:39;0.37;;;0.37;;
8151;SDS011;4117;53.622;9.958;2022-09-13T03:48:09;0.60;;;0.60;;
8151;SDS011;4117;53.622;9.958;2022-09-13T03:50:39;1.07;;;0.80;;
8151;SDS011;4117;53.622;9.958;2022-09-13T03:53:08;0.73;;;0.50;;
8151;SDS011;4117;53.622;9.958;2022-09-13T03:55:38;0.53;;;0.37;;
8151;SDS011;4117;53.622;9.958;2022-09-13T03:58:07;0.83;;;0.70;;
8151;SDS011;4117;53.622;9.958;2022-09-13T04:00:36;0.60;;;0.40;;
8151;SDS011;4117;53.622;9.958;2022-09-13T04:03:04;0.47;;;0.47;;
8151;SDS011;4117;53.622;9.958;2022-09-13T04:05:31;0.60;;;0.60;;
8151;SDS011;4117;53.622;9.958;2022-09-13T04:08:00;1.40;;;0.60;;
8151;SDS011;4117;53.622;9.958;2022-09-13T04:10:29;0.80;;;0.60;;
8151;SDS011;4117;53.622;9.958;2022-09-13T04:12:57;0.43;;;0.43;;
8151;SDS011;4117;53.622;9.958;2022-09-13T04:15:24;0.73;;;0.50;;
8151;SDS011;4117;53.622;9.958;2022-09-13T04:17:51;0.50;;;0.50;;
8151;SDS011;4117;53.622;9.958;2022-09-13T04:20:17;0.80;;;0.70;;
8151;SDS011;4117;53.622;9.958;2022-09-13T04:22:49;1.33;;;0.83;;
8151;SDS011;4117;53.622;9.958;2022-09-13T04:25:17;0.90;;;0.67;;
8151;SDS011;4117;53.622;9.958;2022-09-13T04:27:46;0.50;;;0.50;;
8151;SDS011;4117;53.622;9.958;2022-09-13T04:30:13;0.97;;;0.60;;
8151;SDS011;4117;53.622;9.958;2022-09-13T04:32:41;1.17;;;0.93;;
8151;SDS011;4117;53.622;9.958;2022-09-13T04:35:09;0.50;;;0.50;;
8151;SDS011;4117;53.622;9.958;2022-09-13T04:37:36;0.90;;;0.67;;
8151;SDS011;4117;53.622;9.958;2022-09-13T04:40:03;0.60;;;0.60;;
8151;SDS011;4117;53.622;9.958;2022-09-13T04:42:33;0.77;;;0.63;;
8151;SDS011;4117;53.622;9.958;2022-09-13T04:44:59;1.37;;;0.73;;
8151;SDS011;4117;53.622;9.958;2022-09-13T04:47:26;1.43;;;0.73;;
8151;SDS011;4117;53.622;9.958;2022-09-13T04:49:53;0.80;;;0.80;;
8151;SDS011;4117;53.622;9.958;2022-09-13T04:52:20;0.93;;;0.73;;
8151;SDS011;4117;53.622;9.958;2022-09-13T04:54:47;0.63;;;0.63;;
8151;SDS011;4117;53.622;9.958;2022-09-13T04:57:13;0.87;;;0.80;;
8151;SDS011;4117;53.622;9.958;2022-09-13T04:59:42;2.10;;;0.93;;
8151;SDS011;4117;53.622;9.958;2022-09-13T05:02:09;1.33;;;1.00;;
8151;SDS011;4117;53.622;9.958;2022-09-13T05:04:36;0.77;;;0.57;;
8151;SDS011;4117;53.622;9.958;2022-09-13T05:07:03;1.70;;;0.90;;
8151;SDS011;4117;53.622;9.958;2022-09-13T05:09:30;1.00;;;0.80;;
8151;SDS011;4117;53.622;9.958;2022-09-13T05:11:57;0.60;;;0.47;;
8151;SDS011;4117;53.622;9.958;2022-09-13T05:14:24;3.13;;;0.73;;
8151;SDS011;4117;53.622;9.958;2022-09-13T05:16:52;1.17;;;0.63;;
8151;SDS011;4117;53.622;9.958;2022-09-13T05:19:19;1.30;;;0.70;;
8151;SDS011;4117;53.622;9.958;2022-09-13T05:21:45;1.07;;;0.70;;
8151;SDS011;4117;53.622;9.958;2022-09-13T05:24:12;0.47;;;0.40;;
8151;SDS011;4117;53.622;9.958;2022-09-13T05:26:39;2.33;;;0.87;;
8151;SDS011;4117;53.622;9.958;2022-09-13T05:29:06;0.60;;;0.43;;
8151;SDS011;4117;53.622;9.958;2022-09-13T05:31:33;1.43;;;0.77;;
8151;SDS011;4117;53.622;9.958;2022-09-13T05:34:04;1.13;;;0.70;;
8151;SDS011;4117;53.622;9.958;2022-09-13T05:36:31;1.00;;;0.77;;
8151;SDS011;4117;53.622;9.958;2022-09-13T05:38:58;1.17;;;1.00;;
8151;SDS011;4117;53.622;9.958;2022-09-13T05:41:25;1.13;;;0.80;;
8151;SDS011;4117;53.622;9.958;2022-09-13T05:43:52;0.63;;;0.47;;
8151;SDS011;4117;53.622;9.958;2022-09-13T05:46:19;1.50;;;0.80;;
8151;SDS011;4117;53.622;9.958;2022-09-13T05:48:47;0.53;;;0.43;;
8151;SDS011;4117;53.622;9.958;2022-09-13T05:51:16;0.43;;;0.43;;
8151;SDS011;4117;53.622;9.958;2022-09-13T05:53:44;1.53;;;0.67;;
8151;SDS011;4117;53.622;9.958;2022-09-13T05:56:13;0.50;;;0.50;;
8151;SDS011;4117;53.622;9.958;2022-09-13T05:58:41;0.50;;;0.50;;
8151;SDS011;4117;53.622;9.958;2022-09-13T06:01:09;0.60;;;0.60;;
8151;SDS011;4117;53.622;9.958;2022-09-13T06:03:36;0.93;;;0.83;;
8151;SDS011;4117;53.622;9.958;2022-09-13T06:06:04;0.73;;;0.73;;
8151;SDS011;4117;53.622;9.958;2022-09-13T06:08:33;0.73;;;0.63;;
8151;SDS011;4117;53.622;9.958;2022-09-13T06:11:02;0.50;;;0.50;;
8151;SDS011;4117;53.622;9.958;2022-09-13T06:13:29;0.90;;;0.70;;
8151;SDS011;4117;53.622;9.958;2022-09-13T06:15:58;1.50;;;0.70;;
8151;SDS011;4117;53.622;9.958;2022-09-13T06:18:25;1.03;;;0.83;;
8151;SDS011;4117;53.622;9.958;2022-09-13T06:20:56;1.47;;;0.80;;
8151;SDS011;4117;53.622;9.958;2022-09-13T06:23:24;0.60;;;0.60;;
8151;SDS011;4117;53.622;9.958;2022-09-13T06:25:59;1.33;;;0.73;;
8151;SDS011;4117;53.622;9.958;2022-09-13T06:28:27;0.73;;;0.50;;
8151;SDS011;4117;53.622;9.958;2022-09-13T06:30:58;0.60;;;0.43;;
8151;SDS011;4117;53.622;9.958;2022-09-13T06:33:26;0.87;;;0.53;;
8151;SDS011;4117;53.622;9.958;2022-09-13T06:35:53;0.80;;;0.70;;
8151;SDS011;4117;53.622;9.958;2022-09-13T06:38:20;1.10;;;0.70;;
8151;SDS011;4117;53.622;9.958;2022-09-13T06:40:47;1.00;;;0.80;;
8151;SDS011;4117;53.622;9.958;2022-09-13T06:43:15;2.20;;;0.87;;
8151;SDS011;4117;53.622;9.958;2022-09-13T06:45:41;1.33;;;0.80;;
8151;SDS011;4117;53.622;9.958;2022-09-13T06:48:08;1.10;;;0.83;;
8151;SDS011;4117;53.622;9.958;2022-09-13T06:50:35;0.53;;;0.47;;
8151;SDS011;4117;53.622;9.958;2022-09-13T06:53:02;1.27;;;0.70;;
8151;SDS011;4117;53.622;9.958;2022-09-13T06:55:29;0.30;;;0.30;;
8151;SDS011;4117;53.622;9.958;2022-09-13T06:57:57;0.33;;;0.33;;
8151;SDS011;4117;53.622;9.958;2022-09-13T07:00:25;1.10;;;0.60;;
8151;SDS011;4117;53.622;9.958;2022-09-13T07:02:52;0.87;;;0.40;;
8151;SDS011;4117;53.622;9.958;2022-09-13T07:05:19;0.73;;;0.53;;
8151;SDS011;4117;53.622;9.958;2022-09-13T07:07:47;0.70;;;0.50;;
8151;SDS011;4117;53.622;9.958;2022-09-13T07:10:13;0.53;;;0.40;;
8151;SDS011;4117;53.622;9.958;2022-09-13T07:12:40;1.87;;;0.53;;
8151;SDS011;4117;53.622;9.958;2022-09-13T07:15:07;0.23;;;0.23;;
8151;SDS011;4117;53.622;9.958;2022-09-13T07:17:36;0.57;;;0.50;;
8151;SDS011;4117;53.622;9.958;2022-09-13T07:20:03;0.73;;;0.50;;
8151;SDS011;4117;53.622;9.958;2022-09-13T07:22:32;0.90;;;0.50;;
8151;SDS011;4117;53.622;9.958;2022-09-13T07:24:59;0.40;;;0.30;;
8151;SDS011;4117;53.622;9.958;2022-09-13T07:27:26;0.40;;;0.30;;
8151;SDS011;4117;53.622;9.958;2022-09-13T07:29:53;0.53;;;0.53;;
8151;SDS011;4117;53.622;9.958;2022-09-13T07:32:20;1.17;;;0.67;;
8151;SDS011;4117;53.622;9.958;2022-09-13T07:34:48;0.50;;;0.50;;
8151;SDS011;4117;53.622;9.958;2022-09-13T07:37:15;0.60;;;0.60;;
8151;SDS011;4117;53.622;9.958;2022-09-13T07:39:42;0.87;;;0.37;;
8151;SDS011;4117;53.622;9.958;2022-09-13T07:42:09;0.97;;;0.70;;
8151;SDS011;4117;53.622;9.958;2022-09-13T07:44:36;0.53;;;0.47;;
8151;SDS011;4117;53.622;9.958;2022-09-13T07:47:02;0.40;;;0.40;;
8151;SDS011;4117;53.622;9.958;2022-09-13T07:49:29;0.57;;;0.30;;
8151;SDS011;4117;53.622;9.958;2022-09-13T07:51:58;0.57;;;0.50;;
8151;SDS011;4117;53.622;9.958;2022-09-13T07:54:24;0.47;;;0.43;;
8151;SDS011;4117;53.622;9.958;2022-09-13T07:56:51;0.87;;;0.67;;
8151;SDS011;4117;53.622;9.958;2022-09-13T07:59:18;0.23;;;0.23;;
8151;SDS011;4117;53.622;9.958;2022-09-13T08:01:46;0.93;;;0.50;;
8151;SDS011;4117;53.622;9.958;2022-09-13T08:04:15;0.60;;;0.20;;
8151;SDS011;4117;53.622;9.958;2022-09-13T08:06:43;0.27;;;0.27;;
8151;SDS011;4117;53.622;9.958;2022-09-13T08:09:12;0.40;;;0.30;;
8151;SDS011;4117;53.622;9.958;2022-09-13T08:11:40;0.40;;;0.40;;
8151;SDS011;4117;53.622;9.958;2022-09-13T08:14:08;0.60;;;0.37;;
8151;SDS011;4117;53.622;9.958;2022-09-13T08:16:36;0.47;;;0.40;;
8151;SDS011;4117;53.622;9.958;2022-09-13T08:19:04;0.10;;;0.10;;
8151;SDS011;4117;53.622;9.958;2022-09-13T08:21:32;0.23;;;0.23;;
8151;SDS011;4117;53.622;9.958;2022-09-13T08:24:01;0.40;;;0.20;;
8151;SDS011;4117;53.622;9.958;2022-09-13T08:26:30;0.30;;;0.30;;
8151;SDS011;4117;53.622;9.958;2022-09-13T08:28:59;0.10;;;0.10;;
8151;SDS011;4117;53.622;9.958;2022-09-13T08:31:28;4.00;;;0.37;;
8151;SDS011;4117;53.622;9.958;2022-09-13T08:33:55;0.10;;;0.10;;
8151;SDS011;4117;53.622;9.958;2022-09-13T08:36:23;0.17;;;0.17;;
8151;SDS011;4117;53.622;9.958;2022-09-13T08:38:50;0.10;;;0.10;;
8151;SDS011;4117;53.622;9.958;2022-09-13T08:41:26;0.30;;;0.27;;
8151;SDS011;4117;53.622;9.958;2022-09-13T08:44:19;0.00;;;0.00;;
8151;SDS011;4117;53.622;9.958;2022-09-13T08:46:51;0.00;;;0.00;;
8151;SDS011;4117;53.622;9.958;2022-09-13T08:49:23;0.00;;;0.00;;
8151;SDS011;4117;53.622;9.958;2022-09-13T08:51:54;0.07;;;0.07;;
8151;SDS011;4117;53.622;9.958;2022-09-13T08:54:24;2.17;;;0.20;;
8151;SDS011;4117;53.622;9.958;2022-09-13T08:56:54;0.20;;;0.20;;
8151;SDS011;4117;53.622;9.958;2022-09-13T08:59:35;0.10;;;0.10;;
8151;SDS011;4117;53.622;9.958;2022-09-13T09:02:19;0.00;;;0.00;;
8151;SDS011;4117;53.622;9.958;2022-09-13T09:04:55;0.00;;;0.00;;
8151;SDS011;4117;53.622;9.958;2022-09-13T09:07:29;0.10;;;0.10;;
8151;SDS011;4117;53.622;9.958;2022-09-13T09:10:01;0.00;;;0.00;;
8151;SDS011;4117;53.622;9.958;2022-09-13T09:12:32;0.50;;;0.10;;
8151;SDS011;4117;53.622;9.958;2022-09-13T09:15:04;0.80;;;0.13;;
8151;SDS011;4117;53.622;9.958;2022-09-13T09:17:41;0.13;;;0.13;;
8151;SDS011;4117;53.622;9.958;2022-09-13T09:20:22;0.20;;;0.20;;
8151;SDS011;4117;53.622;9.958;2022-09-13T09:22:52;0.13;;;0.13;;
8151;SDS011;4117;53.622;9.958;2022-09-13T09:25:20;0.13;;;0.13;;
8151;SDS011;4117;53.622;9.958;2022-09-13T09:27:51;0.20;;;0.20;;
8151;SDS011;4117;53.622;9.958;2022-09-13T09:30:19;0.10;;;0.10;;
8151;SDS011;4117;53.622;9.958;2022-09-13T09:32:49;0.10;;;0.10;;
8151;SDS011;4117;53.622;9.958;2022-09-13T09:35:28;0.10;;;0.10;;
8151;SDS011;4117;53.622;9.958;2022-09-13T09:38:17;0.10;;;0.10;;
8151;SDS011;4117;53.622;9.958;2022-09-13T09:40:55;0.47;;;0.43;;
8151;SDS011;4117;53.622;9.958;2022-09-13T09:43:26;0.03;;;0.03;;
8151;SDS011;4117;53.622;9.958;2022-09-13T09:45:57;0.57;;;0.33;;
8151;SDS011;4117;53.622;9.958;2022-09-13T09:48:28;0.20;;;0.20;;
8151;SDS011;4117;53.622;9.958;2022-09-13T09:51:00;0.10;;;0.10;;
8151;SDS011;4117;53.622;9.958;2022-09-13T09:53:31;0.20;;;0.20;;
8151;SDS011;4117;53.622;9.958;2022-09-13T09:56:00;0.10;;;0.10;;
8151;SDS011;4117;53.622;9.958;2022-09-13T09:58:38;0.20;;;0.20;;
8151;SDS011;4117;53.622;9.958;2022-09-13T10:01:13;0.50;;;0.27;;
8151;SDS011;4117;53.622;9.958;2022-09-13T10:03:48;0.10;;;0.10;;
8151;SDS011;4117;53.622;9.958;2022-09-13T10:06:34;0.00;;;0.00;;
8151;SDS011;4117;53.622;9.958;2022-09-13T10:09:03;0.10;;;0.10;;
8151;SDS011;4117;53.622;9.958;2022-09-13T10:11:41;1.17;;;0.10;;
8151;SDS011;4117;53.622;9.958;2022-09-13T10:14:28;0.13;;;0.13;;
8151;SDS011;4117;53.622;9.958;2022-09-13T10:17:01;0.10;;;0.10;;
8151;SDS011;4117;53.622;9.958;2022-09-13T10:19:39;0.00;;;0.00;;
8151;SDS011;4117;53.622;9.958;2022-09-13T10:22:09;0.20;;;0.20;;
8151;SDS011;4117;53.622;9.958;2022-09-13T10:24:37;0.30;;;0.30;;
8151;SDS011;4117;53.622;9.958;2022-09-13T10:27:15;0.20;;;0.20;;
8151;SDS011;4117;53.622;9.958;2022-09-13T10:29:49;0.00;;;0.00;;
8151;SDS011;4117;53.622;9.958;2022-09-13T10:32:19;0.27;;;0.27;;
8151;SDS011;4117;53.622;9.958;2022-09-13T10:34:46;0.20;;;0.20;;
8151;SDS011;4117;53.622;9.958;2022-09-13T10:37:14;0.53;;;0.20;;
8151;SDS011;4117;53.622;9.958;2022-09-13T10:39:52;0.10;;;0.10;;
8151;SDS011;4117;53.622;9.958;2022-09-13T10:42:23;0.00;;;0.00;;
8151;SDS011;4117;53.622;9.958;2022-09-13T10:44:57;0.27;;;0.27;;
8151;SDS011;4117;53.622;9.958;2022-09-13T10:47:26;0.60;;;0.27;;
8151;SDS011;4117;53.622;9.958;2022-09-13T10:49:57;0.10;;;0.10;;
8151;SDS011;4117;53.622;9.958;2022-09-13T10:52:40;0.80;;;0.13;;
8151;SDS011;4117;53.622;9.958;2022-09-13T10:58:13;0.10;;;0.10;;
8151;SDS011;4117;53.622;9.958;2022-09-13T11:00:59;0.20;;;0.20;;
8151;SDS011;4117;53.622;9.958;2022-09-13T11:03:49;1.00;;;0.57;;
8151;SDS011;4117;53.622;9.958;2022-09-13T11:06:39;0.10;;;0.10;;
8151;SDS011;4117;53.622;9.958;2022-09-13T11:09:13;0.23;;;0.20;;
8151;SDS011;4117;53.622;9.958;2022-09-13T11:11:45;0.40;;;0.17;;
8151;SDS011;4117;53.622;9.958;2022-09-13T11:14:27;0.10;;;0.10;;
8151;SDS011;4117;53.622;9.958;2022-09-13T11:17:11;0.10;;;0.10;;
8151;SDS011;4117;53.622;9.958;2022-09-13T11:19:48;0.13;;;0.10;;
8151;SDS011;4117;53.622;9.958;2022-09-13T11:22:55;0.17;;;0.17;;
8151;SDS011;4117;53.622;9.958;2022-09-13T11:25:49;2.10;;;0.23;;
8151;SDS011;4117;53.622;9.958;2022-09-13T11:28:24;0.07;;;0.07;;
8151;SDS011;4117;53.622;9.958;2022-09-13T11:31:02;0.20;;;0.20;;
8151;SDS011;4117;53.622;9.958;2022-09-13T11:33:42;0.30;;;0.27;;
8151;SDS011;4117;53.622;9.958;2022-09-13T11:36:33;0.30;;;0.30;;
8151;SDS011;4117;53.622;9.958;2022-09-13T11:39:11;1.57;;;0.50;;
8151;SDS011;4117;53.622;9.958;2022-09-13T11:41:48;0.50;;;0.20;;
8151;SDS011;4117;53.622;9.958;2022-09-13T11:44:31;0.00;;;0.00;;
8151;SDS011;4117;53.622;9.958;2022-09-13T11:47:19;0.00;;;0.00;;
8151;SDS011;4117;53.622;9.958;2022-09-13T11:50:05;0.10;;;0.10;;
8151;SDS011;4117;53.622;9.958;2022-09-13T11:52:45;0.83;;;0.60;;
8151;SDS011;4117;53.622;9.958;2022-09-13T11:55:19;0.77;;;0.40;;
8151;SDS011;4117;53.622;9.958;2022-09-13T11:57:51;0.53;;;0.30;;
8151;SDS011;4117;53.622;9.958;2022-09-13T12:00:21;0.33;;;0.33;;
8151;SDS011;4117;53.622;9.958;2022-09-13T12:02:57;0.63;;;0.30;;
8151;SDS011;4117;53.622;9.958;2022-09-13T12:05:30;0.10;;;0.10;;
8151;SDS011;4117;53.622;9.958;2022-09-13T12:08:00;0.07;;;0.07;;
8151;SDS011;4117;53.622;9.958;2022-09-13T12:10:32;2.30;;;0.57;;
8151;SDS011;4117;53.622;9.958;2022-09-13T12:13:05;0.67;;;0.40;;
8151;SDS011;4117;53.622;9.958;2022-09-13T12:15:36;0.10;;;0.10;;
8151;SDS011;4117;53.622;9.958;2022-09-13T12:18:05;0.20;;;0.20;;
8151;SDS011;4117;53.622;9.958;2022-09-13T12:20:40;0.47;;;0.20;;
8151;SDS011;4117;53.622;9.958;2022-09-13T12:23:13;0.10;;;0.10;;
8151;SDS011;4117;53.622;9.958;2022-09-13T12:25:45;0.20;;;0.20;;
8151;SDS011;4117;53.622;9.958;2022-09-13T12:28:18;0.20;;;0.20;;
8151;SDS011;4117;53.622;9.958;2022-09-13T12:30:51;1.47;;;0.20;;
8151;SDS011;4117;53.622;9.958;2022-09-13T12:33:20;0.20;;;0.20;;
8151;SDS011;4117;53.622;9.958;2022-09-13T12:35:52;0.30;;;0.23;;
8151;SDS011;4117;53.622;9.958;2022-09-13T12:38:46;0.30;;;0.20;;
8151;SDS011;4117;53.622;9.958;2022-09-13T12:41:29;0.30;;;0.30;;
8151;SDS011;4117;53.622;9.958;2022-09-13T12:44:13;0.00;;;0.00;;
8151;SDS011;4117;53.622;9.958;2022-09-13T12:46:58;0.40;;;0.40;;
8151;SDS011;4117;53.622;9.958;2022-09-13T12:49:45;1.73;;;0.50;;
8151;SDS011;4117;53.622;9.958;2022-09-13T12:52:33;2.67;;;0.20;;
8151;SDS011;4117;53.622;9.958;2022-09-13T12:55:18;0.03;;;0.00;;
8151;SDS011;4117;53.622;9.958;2022-09-13T12:58:05;0.60;;;0.50;;
8151;SDS011;4117;53.622;9.958;2022-09-13T13:01:05;0.00;;;0.00;;
8151;SDS011;4117;53.622;9.958;2022-09-13T13:03:36;0.30;;;0.13;;
8151;SDS011;4117;53.622;9.958;2022-09-13T13:06:16;0.20;;;0.20;;
8151;SDS011;4117;53.622;9.958;2022-09-13T13:08:54;0.40;;;0.30;;
8151;SDS011;4117;53.622;9.958;2022-09-13T13:11:23;0.10;;;0.10;;
8151;SDS011;4117;53.622;9.958;2022-09-13T13:13:52;0.30;;;0.30;;
8151;SDS011;4117;53.622;9.958;2022-09-13T13:16:23;0.37;;;0.20;;
8151;SDS011;4117;53.622;9.958;2022-09-13T13:18:53;0.20;;;0.10;;
8151;SDS011;4117;53.622;9.958;2022-09-13T13:21:25;3.40;;;0.73;;
8151;SDS011;4117;53.622;9.958;2022-09-13T13:27:01;0.10;;;0.10;;
8151;SDS011;4117;53.622;9.958;2022-09-13T13:33:03;0.20;;;0.20;;
8151;SDS011;4117;53.622;9.958;2022-09-13T13:35:30;0.10;;;0.10;;
8151;SDS011;4117;53.622;9.958;2022-09-13T13:38:12;0.50;;;0.30;;
8151;SDS011;4117;53.622;9.958;2022-09-13T13:41:04;0.00;;;0.00;;
8151;SDS011;4117;53.622;9.958;2022-09-13T13:43:34;0.33;;;0.20;;
8151;SDS011;4117;53.622;9.958;2022-09-13T13:48:51;0.10;;;0.10;;
8151;SDS011;4117;53.622;9.958;2022-09-13T13:51:19;2.60;;;0.23;;
8151;SDS011;4117;53.622;9.958;2022-09-13T13:53:49;0.30;;;0.30;;
8151;SDS011;4117;53.622;9.958;2022-09-13T13:56:21;0.00;;;0.00;;
8151;SDS011;4117;53.622;9.958;2022-09-13T13:59:02;0.20;;;0.20;;
8151;SDS011;4117;53.622;9.958;2022-09-13T14:01:34;0.00;;;0.00;;
8151;SDS011;4117;53.622;9.958;2022-09-13T14:07:04;0.73;;;0.20;;
8151;SDS011;4117;53.622;9.958;2022-09-13T14:09:38;0.23;;;0.23;;
8151;SDS011;4117;53.622;9.958;2022-09-13T14:12:24;0.33;;;0.33;;
8151;SDS011;4117;53.622;9.958;2022-09-13T14:18:08;0.07;;;0.07;;
8151;SDS011;4117;53.622;9.958;2022-09-13T14:20:57;0.20;;;0.17;;
8151;SDS011;4117;53.622;9.958;2022-09-13T14:23:25;1.17;;;0.37;;
8151;SDS011;4117;53.622;9.958;2022-09-13T14:25:52;0.20;;;0.20;;
8151;SDS011;4117;53.622;9.958;2022-09-13T14:28:21;0.10;;;0.10;;
8151;SDS011;4117;53.622;9.958;2022-09-13T14:30:52;0.00;;;0.00;;
8151;SDS011;4117;53.622;9.958;2022-09-13T14:33:22;0.30;;;0.27;;
8151;SDS011;4117;53.622;9.958;2022-09-13T14:35:56;0.10;;;0.10;;
8151;SDS011;4117;53.622;9.958;2022-09-13T14:38:26;2.37;;;0.27;;
8151;SDS011;4117;53.622;9.958;2022-09-13T14:40:58;1.17;;;0.40;;
8151;SDS011;4117;53.622;9.958;2022-09-13T14:43:27;0.10;;;0.10;;
8151;SDS011;4117;53.622;9.958;2022-09-13T14:45:58;0.30;;;0.30;;
8151;SDS011;4117;53.622;9.958;2022-09-13T14:48:28;0.17;;;0.17;;
8151;SDS011;4117;53.622;9.958;2022-09-13T14:50:58;0.20;;;0.20;;
8151;SDS011;4117;53.622;9.958;2022-09-13T14:53:28;0.27;;;0.20;;
8151;SDS011;4117;53.622;9.958;2022-09-13T14:55:59;0.10;;;0.10;;
8151;SDS011;4117;53.622;9.958;2022-09-13T14:58:30;0.10;;;0.10;;
8151;SDS011;4117;53.622;9.958;2022-09-13T15:01:07;0.80;;;0.13;;
8151;SDS011;4117;53.622;9.958;2022-09-13T15:03:35;0.23;;;0.23;;
8151;SDS011;4117;53.622;9.958;2022-09-13T15:06:06;0.20;;;0.20;;
8151;SDS011;4117;53.622;9.958;2022-09-13T15:08:46;0.43;;;0.00;;
8151;SDS011;4117;53.622;9.958;2022-09-13T15:11:14;0.10;;;0.10;;
8151;SDS011;4117;53.622;9.958;2022-09-13T15:13:59;1.03;;;0.20;;
8151;SDS011;4117;53.622;9.958;2022-09-13T15:16:49;0.13;;;0.13;;
8151;SDS011;4117;53.622;9.958;2022-09-13T15:19:30;0.07;;;0.07;;
8151;SDS011;4117;53.622;9.958;2022-09-13T15:22:03;0.27;;;0.27;;
8151;SDS011;4117;53.622;9.958;2022-09-13T15:24:31;0.33;;;0.33;;
8151;SDS011;4117;53.622;9.958;2022-09-13T15:27:00;1.53;;;0.10;;
8151;SDS011;4117;53.622;9.958;2022-09-13T15:29:28;0.37;;;0.17;;
8151;SDS011;4117;53.622;9.958;2022-09-13T15:32:00;0.37;;;0.37;;
8151;SDS011;4117;53.622;9.958;2022-09-13T15:34:27;3.03;;;0.27;;
8151;SDS011;4117;53.622;9.958;2022-09-13T15:37:01;0.40;;;0.10;;
8151;SDS011;4117;53.622;9.958;2022-09-13T15:39:42;1.20;;;0.40;;
8151;SDS011;4117;53.622;9.958;2022-09-13T15:42:11;3.60;;;0.20;;
8151;SDS011;4117;53.622;9.958;2022-09-13T15:44:37;1.17;;;0.27;;
8151;SDS011;4117;53.622;9.958;2022-09-13T15:47:08;0.30;;;0.10;;
8151;SDS011;4117;53.622;9.958;2022-09-13T15:49:38;0.00;;;0.00;;
8151;SDS011;4117;53.622;9.958;2022-09-13T15:52:06;0.00;;;0.00;;
8151;SDS011;4117;53.622;9.958;2022-09-13T15:54:34;0.30;;;0.30;;
8151;SDS011;4117;53.622;9.958;2022-09-13T15:57:04;0.27;;;0.10;;
8151;SDS011;4117;53.622;9.958;2022-09-13T15:59:33;0.83;;;0.83;;
8151;SDS011;4117;53.622;9.958;2022-09-13T16:02:01;1.07;;;0.33;;
8151;SDS011;4117;53.622;9.958;2022-09-13T16:04:41;0.20;;;0.20;;
8151;SDS011;4117;53.622;9.958;2022-09-13T16:07:08;0.20;;;0.20;;
8151;SDS011;4117;53.622;9.958;2022-09-13T16:09:35;0.83;;;0.47;;